Barnerville, New York
Current Conditions -  °F | °C
As of 4:15 PM on Thursday 20 Nov 2014 (Local Time) from KNY0 Reporting Station
Broken Clouds Broken Clouds  
Wind Chill: 16°   Ceiling: 4700
Heat Index: 24°   Visibility: 10mi
Dew Point: 18°   Wind: 7mph
Humidity: 77%   Direction: 290°WNW
Pressure: 29.83"   Gusts: NA
Location:  42.7023°N, 74.392°W
Report Text: KNY0 202115Z AUTO 29006KT 10SM SCT008 SCT020 BKN047 M04/M08 A2983 RMK AO2 T10451079
Loading
Personal Weather Stations






























Interactive Weather Map New forecast layout! Learn more

10-Day Weather Forecast

Advertisements
Track Severe Weather on mobile